sensor_id;sensor_type;location;lat;lon;timestamp;P1;durP1;ratioP1;P2;durP2;ratioP2
9783;SDS011;4931;44.874;-1.092;2022-08-19T00:04:09;15.70;;;4.75;;
9783;SDS011;4931;44.874;-1.092;2022-08-19T00:08:59;13.43;;;4.07;;
9783;SDS011;4931;44.874;-1.092;2022-08-19T00:13:44;13.30;;;4.18;;
9783;SDS011;4931;44.874;-1.092;2022-08-19T00:18:32;12.20;;;3.90;;
9783;SDS011;4931;44.874;-1.092;2022-08-19T00:23:17;13.20;;;4.13;;
9783;SDS011;4931;44.874;-1.092;2022-08-19T00:28:05;15.77;;;4.25;;
9783;SDS011;4931;44.874;-1.092;2022-08-19T00:32:50;13.88;;;3.85;;
9783;SDS011;4931;44.874;-1.092;2022-08-19T00:37:36;9.02;;;4.07;;
9783;SDS011;4931;44.874;-1.092;2022-08-19T00:42:24;14.15;;;4.18;;
9783;SDS011;4931;44.874;-1.092;2022-08-19T00:47:15;11.65;;;4.80;;
9783;SDS011;4931;44.874;-1.092;2022-08-19T00:52:03;12.27;;;4.10;;
9783;SDS011;4931;44.874;-1.092;2022-08-19T00:56:51;13.23;;;4.00;;
9783;SDS011;4931;44.874;-1.092;2022-08-19T01:01:38;10.48;;;3.92;;
9783;SDS011;4931;44.874;-1.092;2022-08-19T01:06:28;13.27;;;4.32;;
9783;SDS011;4931;44.874;-1.092;2022-08-19T01:11:14;13.80;;;4.00;;
9783;SDS011;4931;44.874;-1.092;2022-08-19T01:16:01;9.88;;;3.83;;
9783;SDS011;4931;44.874;-1.092;2022-08-19T01:20:50;11.50;;;3.80;;
9783;SDS011;4931;44.874;-1.092;2022-08-19T01:25:42;9.48;;;3.90;;
9783;SDS011;4931;44.874;-1.092;2022-08-19T01:30:32;9.10;;;3.75;;
9783;SDS011;4931;44.874;-1.092;2022-08-19T01:35:25;9.65;;;3.40;;
9783;SDS011;4931;44.874;-1.092;2022-08-19T01:40:13;11.10;;;3.90;;
9783;SDS011;4931;44.874;-1.092;2022-08-19T01:45:02;10.77;;;3.72;;
9783;SDS011;4931;44.874;-1.092;2022-08-19T01:49:47;9.13;;;3.60;;
9783;SDS011;4931;44.874;-1.092;2022-08-19T01:54:33;11.18;;;3.60;;
9783;SDS011;4931;44.874;-1.092;2022-08-19T01:59:19;8.98;;;3.20;;
9783;SDS011;4931;44.874;-1.092;2022-08-19T02:04:08;10.73;;;4.22;;
9783;SDS011;4931;44.874;-1.092;2022-08-19T02:08:54;12.20;;;3.53;;
9783;SDS011;4931;44.874;-1.092;2022-08-19T02:13:40;8.45;;;3.00;;
9783;SDS011;4931;44.874;-1.092;2022-08-19T02:18:25;12.32;;;3.92;;
9783;SDS011;4931;44.874;-1.092;2022-08-19T02:23:14;8.50;;;3.90;;
9783;SDS011;4931;44.874;-1.092;2022-08-19T02:28:00;8.63;;;3.10;;
9783;SDS011;4931;44.874;-1.092;2022-08-19T02:32:46;11.20;;;3.42;;
9783;SDS011;4931;44.874;-1.092;2022-08-19T02:37:31;8.10;;;3.63;;
9783;SDS011;4931;44.874;-1.092;2022-08-19T02:42:31;10.40;;;3.35;;
9783;SDS011;4931;44.874;-1.092;2022-08-19T02:47:17;14.50;;;3.47;;
9783;SDS011;4931;44.874;-1.092;2022-08-19T02:52:03;9.23;;;3.45;;
9783;SDS011;4931;44.874;-1.092;2022-08-19T02:56:48;14.38;;;3.75;;
9783;SDS011;4931;44.874;-1.092;2022-08-19T03:01:36;12.13;;;3.58;;
9783;SDS011;4931;44.874;-1.092;2022-08-19T03:06:23;9.63;;;3.42;;
9783;SDS011;4931;44.874;-1.092;2022-08-19T03:11:12;7.45;;;3.45;;
9783;SDS011;4931;44.874;-1.092;2022-08-19T03:15:58;9.63;;;3.30;;
9783;SDS011;4931;44.874;-1.092;2022-08-19T03:20:47;8.27;;;3.67;;
9783;SDS011;4931;44.874;-1.092;2022-08-19T03:25:36;9.50;;;3.40;;
9783;SDS011;4931;44.874;-1.092;2022-08-19T03:30:24;15.77;;;4.32;;
9783;SDS011;4931;44.874;-1.092;2022-08-19T03:35:10;8.65;;;3.30;;
9783;SDS011;4931;44.874;-1.092;2022-08-19T03:39:58;6.22;;;3.13;;
9783;SDS011;4931;44.874;-1.092;2022-08-19T03:44:45;8.25;;;4.38;;
9783;SDS011;4931;44.874;-1.092;2022-08-19T03:49:31;8.45;;;3.70;;
9783;SDS011;4931;44.874;-1.092;2022-08-19T03:54:19;10.40;;;3.60;;
9783;SDS011;4931;44.874;-1.092;2022-08-19T03:59:09;9.55;;;3.80;;
9783;SDS011;4931;44.874;-1.092;2022-08-19T04:08:44;10.27;;;3.58;;
9783;SDS011;4931;44.874;-1.092;2022-08-19T04:13:31;12.88;;;3.78;;
9783;SDS011;4931;44.874;-1.092;2022-08-19T04:18:19;10.13;;;4.40;;
9783;SDS011;4931;44.874;-1.092;2022-08-19T04:23:04;10.88;;;3.80;;
9783;SDS011;4931;44.874;-1.092;2022-08-19T04:27:49;9.70;;;3.75;;
9783;SDS011;4931;44.874;-1.092;2022-08-19T04:32:34;8.13;;;4.20;;
9783;SDS011;4931;44.874;-1.092;2022-08-19T04:37:22;12.80;;;4.20;;
9783;SDS011;4931;44.874;-1.092;2022-08-19T04:42:16;13.10;;;4.20;;
9783;SDS011;4931;44.874;-1.092;2022-08-19T04:47:14;10.68;;;4.50;;
9783;SDS011;4931;44.874;-1.092;2022-08-19T04:52:22;15.60;;;5.18;;
9783;SDS011;4931;44.874;-1.092;2022-08-19T04:57:08;14.65;;;6.20;;
9783;SDS011;4931;44.874;-1.092;2022-08-19T05:01:54;11.82;;;5.20;;
9783;SDS011;4931;44.874;-1.092;2022-08-19T05:06:39;10.32;;;4.68;;
9783;SDS011;4931;44.874;-1.092;2022-08-19T05:11:28;11.77;;;4.85;;
9783;SDS011;4931;44.874;-1.092;2022-08-19T05:16:15;10.98;;;4.95;;
9783;SDS011;4931;44.874;-1.092;2022-08-19T05:21:05;11.50;;;4.70;;
9783;SDS011;4931;44.874;-1.092;2022-08-19T05:26:03;9.93;;;4.43;;
9783;SDS011;4931;44.874;-1.092;2022-08-19T05:30:53;12.05;;;4.60;;
9783;SDS011;4931;44.874;-1.092;2022-08-19T05:35:39;11.55;;;5.13;;
9783;SDS011;4931;44.874;-1.092;2022-08-19T05:40:25;11.77;;;5.10;;
9783;SDS011;4931;44.874;-1.092;2022-08-19T05:45:11;14.60;;;5.68;;
9783;SDS011;4931;44.874;-1.092;2022-08-19T05:49:59;9.68;;;4.25;;
9783;SDS011;4931;44.874;-1.092;2022-08-19T05:54:46;10.65;;;4.70;;
9783;SDS011;4931;44.874;-1.092;2022-08-19T05:59:32;13.63;;;5.85;;
9783;SDS011;4931;44.874;-1.092;2022-08-19T06:04:20;17.65;;;6.32;;
9783;SDS011;4931;44.874;-1.092;2022-08-19T06:09:08;12.00;;;6.00;;
9783;SDS011;4931;44.874;-1.092;2022-08-19T06:13:53;10.07;;;5.30;;
9783;SDS011;4931;44.874;-1.092;2022-08-19T06:18:40;11.48;;;5.07;;
9783;SDS011;4931;44.874;-1.092;2022-08-19T06:23:26;9.60;;;5.55;;
9783;SDS011;4931;44.874;-1.092;2022-08-19T06:28:13;12.98;;;5.78;;
9783;SDS011;4931;44.874;-1.092;2022-08-19T06:32:59;10.30;;;5.68;;
9783;SDS011;4931;44.874;-1.092;2022-08-19T06:37:44;12.20;;;4.32;;
9783;SDS011;4931;44.874;-1.092;2022-08-19T06:42:29;16.05;;;4.28;;
9783;SDS011;4931;44.874;-1.092;2022-08-19T06:47:19;8.77;;;4.20;;
9783;SDS011;4931;44.874;-1.092;2022-08-19T06:52:09;16.83;;;4.10;;
9783;SDS011;4931;44.874;-1.092;2022-08-19T06:56:56;9.52;;;3.70;;
9783;SDS011;4931;44.874;-1.092;2022-08-19T07:01:44;11.38;;;3.60;;
9783;SDS011;4931;44.874;-1.092;2022-08-19T07:06:34;7.80;;;3.80;;
9783;SDS011;4931;44.874;-1.092;2022-08-19T07:11:25;10.77;;;3.50;;
9783;SDS011;4931;44.874;-1.092;2022-08-19T07:16:16;10.02;;;3.75;;
9783;SDS011;4931;44.874;-1.092;2022-08-19T07:21:11;9.50;;;3.83;;
9783;SDS011;4931;44.874;-1.092;2022-08-19T07:26:00;8.95;;;3.90;;
9783;SDS011;4931;44.874;-1.092;2022-08-19T07:30:50;4.97;;;3.20;;
9783;SDS011;4931;44.874;-1.092;2022-08-19T07:35:35;9.43;;;2.80;;
9783;SDS011;4931;44.874;-1.092;2022-08-19T07:40:21;5.78;;;2.40;;
9783;SDS011;4931;44.874;-1.092;2022-08-19T07:45:09;5.15;;;1.60;;
9783;SDS011;4931;44.874;-1.092;2022-08-19T07:49:55;8.93;;;2.08;;
9783;SDS011;4931;44.874;-1.092;2022-08-19T07:54:40;11.00;;;2.10;;
9783;SDS011;4931;44.874;-1.092;2022-08-19T07:59:26;5.25;;;1.80;;
9783;SDS011;4931;44.874;-1.092;2022-08-19T08:04:14;4.60;;;1.67;;
9783;SDS011;4931;44.874;-1.092;2022-08-19T08:09:13;5.70;;;2.30;;
9783;SDS011;4931;44.874;-1.092;2022-08-19T08:14:24;3.67;;;1.90;;
9783;SDS011;4931;44.874;-1.092;2022-08-19T08:19:19;6.65;;;2.00;;
9783;SDS011;4931;44.874;-1.092;2022-08-19T08:24:06;7.22;;;1.70;;
9783;SDS011;4931;44.874;-1.092;2022-08-19T08:28:51;6.85;;;1.73;;
9783;SDS011;4931;44.874;-1.092;2022-08-19T08:33:38;3.78;;;1.67;;
9783;SDS011;4931;44.874;-1.092;2022-08-19T08:38:26;7.60;;;1.92;;
9783;SDS011;4931;44.874;-1.092;2022-08-19T08:43:22;8.15;;;2.00;;
9783;SDS011;4931;44.874;-1.092;2022-08-19T08:48:15;6.15;;;1.90;;
9783;SDS011;4931;44.874;-1.092;2022-08-19T08:53:05;7.07;;;2.00;;
9783;SDS011;4931;44.874;-1.092;2022-08-19T08:57:57;6.82;;;1.73;;
9783;SDS011;4931;44.874;-1.092;2022-08-19T09:02:46;4.72;;;1.63;;
9783;SDS011;4931;44.874;-1.092;2022-08-19T09:07:35;6.20;;;1.67;;
9783;SDS011;4931;44.874;-1.092;2022-08-19T09:12:32;7.03;;;1.98;;
9783;SDS011;4931;44.874;-1.092;2022-08-19T09:17:27;4.93;;;1.60;;
9783;SDS011;4931;44.874;-1.092;2022-08-19T09:22:17;3.75;;;1.70;;
9783;SDS011;4931;44.874;-1.092;2022-08-19T09:27:07;5.72;;;1.75;;
9783;SDS011;4931;44.874;-1.092;2022-08-19T09:31:59;4.82;;;1.40;;
9783;SDS011;4931;44.874;-1.092;2022-08-19T09:37:07;6.45;;;1.42;;
9783;SDS011;4931;44.874;-1.092;2022-08-19T09:41:55;4.67;;;1.77;;
9783;SDS011;4931;44.874;-1.092;2022-08-19T09:46:41;4.88;;;1.52;;
9783;SDS011;4931;44.874;-1.092;2022-08-19T09:51:28;5.13;;;1.50;;
9783;SDS011;4931;44.874;-1.092;2022-08-19T09:56:18;5.03;;;1.30;;
9783;SDS011;4931;44.874;-1.092;2022-08-19T10:01:05;2.72;;;1.20;;
9783;SDS011;4931;44.874;-1.092;2022-08-19T10:05:54;3.10;;;1.35;;
9783;SDS011;4931;44.874;-1.092;2022-08-19T10:10:40;3.53;;;1.17;;
9783;SDS011;4931;44.874;-1.092;2022-08-19T10:15:30;2.80;;;0.80;;
9783;SDS011;4931;44.874;-1.092;2022-08-19T10:20:30;3.08;;;1.00;;
9783;SDS011;4931;44.874;-1.092;2022-08-19T10:25:16;1.60;;;0.80;;
9783;SDS011;4931;44.874;-1.092;2022-08-19T10:30:02;2.00;;;0.95;;
9783;SDS011;4931;44.874;-1.092;2022-08-19T10:34:54;5.10;;;1.75;;
9783;SDS011;4931;44.874;-1.092;2022-08-19T10:39:39;5.20;;;0.93;;
9783;SDS011;4931;44.874;-1.092;2022-08-19T10:44:25;3.22;;;1.10;;
9783;SDS011;4931;44.874;-1.092;2022-08-19T10:49:13;3.67;;;0.88;;
9783;SDS011;4931;44.874;-1.092;2022-08-19T10:54:01;2.47;;;0.88;;
9783;SDS011;4931;44.874;-1.092;2022-08-19T10:58:53;2.35;;;0.88;;
9783;SDS011;4931;44.874;-1.092;2022-08-19T11:03:40;4.68;;;1.00;;
9783;SDS011;4931;44.874;-1.092;2022-08-19T11:08:27;3.28;;;1.45;;
9783;SDS011;4931;44.874;-1.092;2022-08-19T11:13:15;2.78;;;1.60;;
9783;SDS011;4931;44.874;-1.092;2022-08-19T11:18:00;4.13;;;1.17;;
9783;SDS011;4931;44.874;-1.092;2022-08-19T11:22:53;3.95;;;1.10;;
9783;SDS011;4931;44.874;-1.092;2022-08-19T11:27:39;2.85;;;1.10;;
9783;SDS011;4931;44.874;-1.092;2022-08-19T11:32:29;4.57;;;1.10;;
9783;SDS011;4931;44.874;-1.092;2022-08-19T11:37:15;2.83;;;1.02;;
9783;SDS011;4931;44.874;-1.092;2022-08-19T11:42:01;2.33;;;1.00;;
9783;SDS011;4931;44.874;-1.092;2022-08-19T11:47:07;5.68;;;1.10;;
9783;SDS011;4931;44.874;-1.092;2022-08-19T11:51:55;4.28;;;1.45;;
9783;SDS011;4931;44.874;-1.092;2022-08-19T11:56:41;2.53;;;1.10;;
9783;SDS011;4931;44.874;-1.092;2022-08-19T12:01:27;4.43;;;1.20;;
9783;SDS011;4931;44.874;-1.092;2022-08-19T12:06:14;3.90;;;1.10;;
9783;SDS011;4931;44.874;-1.092;2022-08-19T12:11:04;4.93;;;1.23;;
9783;SDS011;4931;44.874;-1.092;2022-08-19T12:15:50;3.97;;;1.08;;
9783;SDS011;4931;44.874;-1.092;2022-08-19T12:20:36;4.80;;;0.90;;
9783;SDS011;4931;44.874;-1.092;2022-08-19T12:25:23;3.42;;;1.10;;
9783;SDS011;4931;44.874;-1.092;2022-08-19T12:30:11;1.52;;;0.98;;
9783;SDS011;4931;44.874;-1.092;2022-08-19T12:34:58;2.22;;;0.70;;
9783;SDS011;4931;44.874;-1.092;2022-08-19T12:39:43;2.47;;;0.75;;
9783;SDS011;4931;44.874;-1.092;2022-08-19T12:44:28;2.47;;;0.93;;
9783;SDS011;4931;44.874;-1.092;2022-08-19T12:49:17;3.03;;;0.80;;
9783;SDS011;4931;44.874;-1.092;2022-08-19T12:54:22;4.38;;;0.98;;
9783;SDS011;4931;44.874;-1.092;2022-08-19T12:59:07;3.60;;;0.60;;
9783;SDS011;4931;44.874;-1.092;2022-08-19T13:03:53;1.85;;;0.70;;
9783;SDS011;4931;44.874;-1.092;2022-08-19T13:08:41;3.85;;;1.05;;
9783;SDS011;4931;44.874;-1.092;2022-08-19T13:13:27;1.80;;;0.60;;
9783;SDS011;4931;44.874;-1.092;2022-08-19T13:18:13;2.80;;;0.90;;
9783;SDS011;4931;44.874;-1.092;2022-08-19T13:22:59;2.92;;;0.73;;
9783;SDS011;4931;44.874;-1.092;2022-08-19T13:27:47;3.85;;;0.95;;
9783;SDS011;4931;44.874;-1.092;2022-08-19T13:32:34;1.73;;;0.88;;
9783;SDS011;4931;44.874;-1.092;2022-08-19T13:37:31;5.25;;;0.70;;
9783;SDS011;4931;44.874;-1.092;2022-08-19T13:42:26;4.63;;;0.70;;
9783;SDS011;4931;44.874;-1.092;2022-08-19T13:47:15;1.25;;;0.45;;
9783;SDS011;4931;44.874;-1.092;2022-08-19T13:52:02;2.13;;;0.85;;
9783;SDS011;4931;44.874;-1.092;2022-08-19T13:56:47;2.25;;;0.82;;
9783;SDS011;4931;44.874;-1.092;2022-08-19T14:01:33;2.63;;;0.82;;
9783;SDS011;4931;44.874;-1.092;2022-08-19T14:06:21;2.22;;;0.65;;
9783;SDS011;4931;44.874;-1.092;2022-08-19T14:11:07;2.17;;;0.38;;
9783;SDS011;4931;44.874;-1.092;2022-08-19T14:15:52;1.20;;;0.40;;
9783;SDS011;4931;44.874;-1.092;2022-08-19T14:20:38;0.70;;;0.30;;
9783;SDS011;4931;44.874;-1.092;2022-08-19T14:25:27;0.68;;;0.30;;
9783;SDS011;4931;44.874;-1.092;2022-08-19T14:30:14;0.50;;;0.20;;
9783;SDS011;4931;44.874;-1.092;2022-08-19T14:35:01;0.63;;;0.20;;
9783;SDS011;4931;44.874;-1.092;2022-08-19T14:39:47;0.20;;;0.20;;
9783;SDS011;4931;44.874;-1.092;2022-08-19T14:44:35;0.30;;;0.20;;
9783;SDS011;4931;44.874;-1.092;2022-08-19T14:49:20;0.80;;;0.20;;
9783;SDS011;4931;44.874;-1.092;2022-08-19T14:54:16;0.65;;;0.20;;
9783;SDS011;4931;44.874;-1.092;2022-08-19T14:59:01;0.50;;;0.30;;
9783;SDS011;4931;44.874;-1.092;2022-08-19T15:03:49;5.40;;;1.00;;
9783;SDS011;4931;44.874;-1.092;2022-08-19T15:08:36;1.75;;;0.40;;
9783;SDS011;4931;44.874;-1.092;2022-08-19T15:13:22;0.82;;;0.30;;
9783;SDS011;4931;44.874;-1.092;2022-08-19T15:18:09;1.63;;;0.40;;
9783;SDS011;4931;44.874;-1.092;2022-08-19T15:22:57;1.02;;;0.40;;
9783;SDS011;4931;44.874;-1.092;2022-08-19T15:27:45;2.60;;;0.50;;
9783;SDS011;4931;44.874;-1.092;2022-08-19T15:32:31;0.98;;;0.40;;
9783;SDS011;4931;44.874;-1.092;2022-08-19T15:37:17;2.53;;;0.50;;
9783;SDS011;4931;44.874;-1.092;2022-08-19T15:42:05;0.90;;;0.30;;
9783;SDS011;4931;44.874;-1.092;2022-08-19T15:46:55;0.50;;;0.40;;
9783;SDS011;4931;44.874;-1.092;2022-08-19T15:51:41;8.20;;;4.32;;
9783;SDS011;4931;44.874;-1.092;2022-08-19T15:56:28;0.20;;;0.20;;
9783;SDS011;4931;44.874;-1.092;2022-08-19T16:01:41;1.38;;;0.40;;
9783;SDS011;4931;44.874;-1.092;2022-08-19T16:06:39;1.30;;;0.50;;
9783;SDS011;4931;44.874;-1.092;2022-08-19T16:11:28;1.40;;;0.40;;
9783;SDS011;4931;44.874;-1.092;2022-08-19T16:16:20;4.18;;;0.60;;
9783;SDS011;4931;44.874;-1.092;2022-08-19T16:21:16;1.55;;;0.57;;
9783;SDS011;4931;44.874;-1.092;2022-08-19T16:26:02;1.02;;;0.32;;
9783;SDS011;4931;44.874;-1.092;2022-08-19T16:30:47;1.52;;;0.40;;
9783;SDS011;4931;44.874;-1.092;2022-08-19T16:35:32;0.30;;;0.30;;
9783;SDS011;4931;44.874;-1.092;2022-08-19T16:40:20;2.30;;;0.52;;
9783;SDS011;4931;44.874;-1.092;2022-08-19T16:45:06;2.25;;;0.40;;
9783;SDS011;4931;44.874;-1.092;2022-08-19T16:49:52;0.70;;;0.50;;
9783;SDS011;4931;44.874;-1.092;2022-08-19T16:54:37;2.25;;;0.50;;
9783;SDS011;4931;44.874;-1.092;2022-08-19T16:59:27;1.67;;;0.60;;
9783;SDS011;4931;44.874;-1.092;2022-08-19T17:04:14;0.52;;;0.40;;
9783;SDS011;4931;44.874;-1.092;2022-08-19T17:08:59;1.75;;;0.50;;
9783;SDS011;4931;44.874;-1.092;2022-08-19T17:13:46;1.85;;;0.50;;
9783;SDS011;4931;44.874;-1.092;2022-08-19T17:18:34;2.60;;;0.45;;
9783;SDS011;4931;44.874;-1.092;2022-08-19T17:23:19;2.15;;;0.50;;
9783;SDS011;4931;44.874;-1.092;2022-08-19T17:28:25;1.85;;;0.50;;
9783;SDS011;4931;44.874;-1.092;2022-08-19T17:33:12;4.20;;;0.77;;
9783;SDS011;4931;44.874;-1.092;2022-08-19T17:38:00;1.02;;;0.50;;
9783;SDS011;4931;44.874;-1.092;2022-08-19T17:42:48;2.08;;;0.57;;
9783;SDS011;4931;44.874;-1.092;2022-08-19T17:47:35;3.30;;;0.52;;
9783;SDS011;4931;44.874;-1.092;2022-08-19T17:52:21;3.00;;;0.90;;
9783;SDS011;4931;44.874;-1.092;2022-08-19T17:57:09;2.35;;;0.57;;
9783;SDS011;4931;44.874;-1.092;2022-08-19T18:01:55;1.95;;;0.70;;
9783;SDS011;4931;44.874;-1.092;2022-08-19T18:06:40;3.10;;;0.80;;
9783;SDS011;4931;44.874;-1.092;2022-08-19T18:11:33;4.03;;;0.95;;
9783;SDS011;4931;44.874;-1.092;2022-08-19T18:16:21;2.42;;;0.70;;
9783;SDS011;4931;44.874;-1.092;2022-08-19T18:21:06;4.20;;;1.00;;
9783;SDS011;4931;44.874;-1.092;2022-08-19T18:25:52;2.05;;;0.85;;
9783;SDS011;4931;44.874;-1.092;2022-08-19T18:30:37;5.38;;;1.48;;
9783;SDS011;4931;44.874;-1.092;2022-08-19T18:35:27;2.88;;;1.00;;
9783;SDS011;4931;44.874;-1.092;2022-08-19T18:40:15;3.95;;;1.40;;
9783;SDS011;4931;44.874;-1.092;2022-08-19T18:45:14;2.30;;;0.93;;
9783;SDS011;4931;44.874;-1.092;2022-08-19T18:50:11;2.40;;;0.80;;
9783;SDS011;4931;44.874;-1.092;2022-08-19T18:55:00;3.13;;;1.10;;
9783;SDS011;4931;44.874;-1.092;2022-08-19T18:59:46;1.73;;;1.10;;
9783;SDS011;4931;44.874;-1.092;2022-08-19T19:04:31;2.72;;;0.77;;
9783;SDS011;4931;44.874;-1.092;2022-08-19T19:09:20;1.58;;;1.00;;
9783;SDS011;4931;44.874;-1.092;2022-08-19T19:14:10;4.43;;;0.90;;
9783;SDS011;4931;44.874;-1.092;2022-08-19T19:19:18;2.10;;;1.02;;
9783;SDS011;4931;44.874;-1.092;2022-08-19T19:24:04;1.98;;;0.80;;
9783;SDS011;4931;44.874;-1.092;2022-08-19T19:28:50;4.28;;;1.23;;
9783;SDS011;4931;44.874;-1.092;2022-08-19T19:33:38;3.15;;;1.23;;
9783;SDS011;4931;44.874;-1.092;2022-08-19T19:38:23;1.60;;;0.80;;
9783;SDS011;4931;44.874;-1.092;2022-08-19T19:43:09;3.13;;;1.00;;
9783;SDS011;4931;44.874;-1.092;2022-08-19T19:47:54;3.83;;;0.95;;
9783;SDS011;4931;44.874;-1.092;2022-08-19T19:52:44;2.05;;;1.00;;
9783;SDS011;4931;44.874;-1.092;2022-08-19T19:57:30;2.83;;;1.05;;
9783;SDS011;4931;44.874;-1.092;2022-08-19T20:02:15;2.13;;;1.00;;
9783;SDS011;4931;44.874;-1.092;2022-08-19T20:07:02;3.92;;;1.25;;
9783;SDS011;4931;44.874;-1.092;2022-08-19T20:11:51;1.90;;;1.17;;
9783;SDS011;4931;44.874;-1.092;2022-08-19T20:16:38;3.00;;;1.17;;
9783;SDS011;4931;44.874;-1.092;2022-08-19T20:21:27;3.33;;;1.48;;
9783;SDS011;4931;44.874;-1.092;2022-08-19T20:26:14;4.15;;;1.50;;
9783;SDS011;4931;44.874;-1.092;2022-08-19T20:31:17;6.63;;;1.40;;
9783;SDS011;4931;44.874;-1.092;2022-08-19T20:36:40;3.08;;;1.52;;
9783;SDS011;4931;44.874;-1.092;2022-08-19T20:41:25;3.60;;;1.92;;
9783;SDS011;4931;44.874;-1.092;2022-08-19T20:46:10;5.60;;;1.70;;
9783;SDS011;4931;44.874;-1.092;2022-08-19T20:50:58;4.25;;;1.88;;
9783;SDS011;4931;44.874;-1.092;2022-08-19T20:55:44;3.53;;;1.63;;
9783;SDS011;4931;44.874;-1.092;2022-08-19T21:00:30;4.20;;;2.10;;
9783;SDS011;4931;44.874;-1.092;2022-08-19T21:05:16;3.72;;;2.10;;
9783;SDS011;4931;44.874;-1.092;2022-08-19T21:10:04;2.72;;;1.70;;
9783;SDS011;4931;44.874;-1.092;2022-08-19T21:14:50;3.90;;;1.60;;
9783;SDS011;4931;44.874;-1.092;2022-08-19T21:19:35;3.78;;;1.60;;
9783;SDS011;4931;44.874;-1.092;2022-08-19T21:24:21;5.15;;;2.03;;
9783;SDS011;4931;44.874;-1.092;2022-08-19T21:29:14;5.93;;;2.17;;
9783;SDS011;4931;44.874;-1.092;2022-08-19T21:33:59;4.70;;;2.30;;
9783;SDS011;4931;44.874;-1.092;2022-08-19T21:38:45;4.25;;;2.38;;
9783;SDS011;4931;44.874;-1.092;2022-08-19T21:43:31;3.72;;;2.35;;
9783;SDS011;4931;44.874;-1.092;2022-08-19T21:48:19;5.88;;;2.72;;
9783;SDS011;4931;44.874;-1.092;2022-08-19T21:53:04;10.00;;;5.57;;
9783;SDS011;4931;44.874;-1.092;2022-08-19T21:57:57;4.25;;;2.13;;
9783;SDS011;4931;44.874;-1.092;2022-08-19T22:02:45;3.90;;;2.40;;
9783;SDS011;4931;44.874;-1.092;2022-08-19T22:07:33;5.38;;;2.80;;
9783;SDS011;4931;44.874;-1.092;2022-08-19T22:12:20;6.80;;;2.67;;
9783;SDS011;4931;44.874;-1.092;2022-08-19T22:17:06;5.72;;;2.13;;
9783;SDS011;4931;44.874;-1.092;2022-08-19T22:21:51;4.18;;;2.40;;
9783;SDS011;4931;44.874;-1.092;2022-08-19T22:26:39;4.22;;;2.20;;
9783;SDS011;4931;44.874;-1.092;2022-08-19T22:31:25;4.72;;;2.20;;
9783;SDS011;4931;44.874;-1.092;2022-08-19T22:36:12;4.75;;;2.33;;
9783;SDS011;4931;44.874;-1.092;2022-08-19T22:40:58;6.75;;;2.50;;
9783;SDS011;4931;44.874;-1.092;2022-08-19T22:45:52;5.55;;;2.50;;
9783;SDS011;4931;44.874;-1.092;2022-08-19T22:50:39;3.92;;;2.80;;
9783;SDS011;4931;44.874;-1.092;2022-08-19T22:55:47;5.95;;;2.83;;
9783;SDS011;4931;44.874;-1.092;2022-08-19T23:00:33;4.43;;;2.50;;
9783;SDS011;4931;44.874;-1.092;2022-08-19T23:05:22;4.72;;;2.45;;
9783;SDS011;4931;44.874;-1.092;2022-08-19T23:10:09;6.00;;;2.83;;
9783;SDS011;4931;44.874;-1.092;2022-08-19T23:15:09;4.55;;;2.65;;
9783;SDS011;4931;44.874;-1.092;2022-08-19T23:19:57;4.65;;;2.72;;
9783;SDS011;4931;44.874;-1.092;2022-08-19T23:24:46;4.63;;;2.70;;
9783;SDS011;4931;44.874;-1.092;2022-08-19T23:29:36;4.68;;;2.50;;
9783;SDS011;4931;44.874;-1.092;2022-08-19T23:34:35;4.20;;;2.55;;
9783;SDS011;4931;44.874;-1.092;2022-08-19T23:39:20;5.63;;;2.80;;
9783;SDS011;4931;44.874;-1.092;2022-08-19T23:44:10;2.60;;;2.22;;
9783;SDS011;4931;44.874;-1.092;2022-08-19T23:48:56;3.70;;;2.35;;
9783;SDS011;4931;44.874;-1.092;2022-08-19T23:53:43;4.60;;;3.03;;
9783;SDS011;4931;44.874;-1.092;2022-08-19T23:58:29;7.28;;;2.60;;
